createdAt,value
2019-03-13T00:02:00.000Z,98357
2019-03-13T00:07:00.000Z,98352
2019-03-13T00:13:00.000Z,98350
2019-03-13T00:18:00.000Z,98335
2019-03-13T00:23:00.000Z,98354
2019-03-13T00:28:00.000Z,98335
2019-03-13T00:33:00.000Z,98321
2019-03-13T00:38:00.000Z,98303
2019-03-13T00:43:00.000Z,98271
2019-03-13T00:48:00.000Z,98248
2019-03-13T00:53:00.000Z,98237
2019-03-13T00:58:00.000Z,98231
2019-03-13T01:03:00.000Z,98221
2019-03-13T01:08:00.000Z,98231
2019-03-13T01:13:00.000Z,98217
2019-03-13T01:18:00.000Z,98203
2019-03-13T01:23:00.000Z,98191
2019-03-13T01:28:00.000Z,98181
2019-03-13T01:33:00.000Z,98182
2019-03-13T01:38:00.000Z,98173
2019-03-13T01:43:00.000Z,98174
2019-03-13T01:48:00.000Z,98164
2019-03-13T01:53:00.000Z,98150
2019-03-13T01:58:00.000Z,98142
2019-03-13T02:03:00.000Z,98146
2019-03-13T02:08:00.000Z,98127
2019-03-13T02:13:00.000Z,98130
2019-03-13T02:18:00.000Z,98123
2019-03-13T02:23:00.000Z,98124
2019-03-13T02:28:00.000Z,98135
2019-03-13T02:33:00.000Z,98103
2019-03-13T02:38:00.000Z,98102
2019-03-13T02:43:00.000Z,98085
2019-03-13T02:48:00.000Z,98078
2019-03-13T02:53:00.000Z,98083
2019-03-13T02:58:00.000Z,98038
2019-03-13T03:03:00.000Z,98022
2019-03-13T03:08:00.000Z,98072
2019-03-13T03:13:00.000Z,98071
2019-03-13T03:18:00.000Z,98072
2019-03-13T03:23:00.000Z,98067
2019-03-13T03:28:00.000Z,98084
2019-03-13T03:33:00.000Z,98080
2019-03-13T03:38:00.000Z,98066
2019-03-13T03:43:00.000Z,98065
2019-03-13T03:48:00.000Z,97997
2019-03-13T03:53:00.000Z,97997
2019-03-13T03:58:00.000Z,97994
2019-03-13T04:03:00.000Z,98008
2019-03-13T04:08:00.000Z,98008
2019-03-13T04:13:00.000Z,98061
2019-03-13T04:18:00.000Z,98065
2019-03-13T04:23:00.000Z,98076
2019-03-13T04:28:00.000Z,98053
2019-03-13T04:33:00.000Z,97997
2019-03-13T04:38:00.000Z,98023
2019-03-13T04:43:00.000Z,98003
2019-03-13T04:48:00.000Z,98027
2019-03-13T04:53:00.000Z,98034
2019-03-13T04:58:00.000Z,97982
2019-03-13T05:03:00.000Z,98082
2019-03-13T05:08:00.000Z,98066
2019-03-13T05:13:00.000Z,98101
2019-03-13T05:18:00.000Z,98185
2019-03-13T05:23:00.000Z,98141
2019-03-13T05:28:00.000Z,98114
2019-03-13T05:33:00.000Z,98192
2019-03-13T05:38:00.000Z,98137
2019-03-13T05:44:00.000Z,98134
2019-03-13T05:49:00.000Z,98149
2019-03-13T05:54:00.000Z,98172
2019-03-13T05:59:00.000Z,98163
2019-03-13T06:04:00.000Z,98192
2019-03-13T06:09:00.000Z,98209
2019-03-13T06:14:00.000Z,98203
2019-03-13T06:19:00.000Z,98214
2019-03-13T06:24:00.000Z,98220
2019-03-13T06:29:00.000Z,98212
2019-03-13T06:34:00.000Z,98226
2019-03-13T06:39:00.000Z,98234
2019-03-13T06:44:00.000Z,98247
2019-03-13T06:49:00.000Z,98262
2019-03-13T06:54:00.000Z,98276
2019-03-13T06:59:00.000Z,98258
2019-03-13T07:04:00.000Z,98263
2019-03-13T07:09:00.000Z,98262
2019-03-13T07:14:00.000Z,98281
2019-03-13T07:19:00.000Z,98294
2019-03-13T07:24:00.000Z,98295
2019-03-13T07:29:00.000Z,98305
2019-03-13T07:34:00.000Z,98316
2019-03-13T07:39:00.000Z,98320
2019-03-13T07:44:00.000Z,98328
2019-03-13T07:49:00.000Z,98332
2019-03-13T07:54:00.000Z,98336
2019-03-13T07:59:00.000Z,98330
2019-03-13T08:04:00.000Z,98339
2019-03-13T08:09:00.000Z,98353
2019-03-13T08:14:00.000Z,98353
2019-03-13T08:19:00.000Z,98369
2019-03-13T08:24:00.000Z,98373
2019-03-13T08:29:00.000Z,98373
2019-03-13T08:34:00.000Z,98380
2019-03-13T08:39:00.000Z,98370
2019-03-13T08:44:00.000Z,98383
2019-03-13T08:49:00.000Z,98371
2019-03-13T08:54:00.000Z,98370
2019-03-13T08:59:00.000Z,98362
2019-03-13T09:04:00.000Z,98364
2019-03-13T09:09:00.000Z,98345
2019-03-13T09:14:00.000Z,98341
2019-03-13T09:19:00.000Z,98338
2019-03-13T09:24:00.000Z,98341
2019-03-13T09:29:00.000Z,98343
2019-03-13T09:34:00.000Z,98349
2019-03-13T09:39:00.000Z,98346
2019-03-13T09:44:00.000Z,98351
2019-03-13T09:49:00.000Z,98357
2019-03-13T09:54:00.000Z,98367
2019-03-13T09:59:00.000Z,98373
2019-03-13T10:04:00.000Z,98378
2019-03-13T10:09:00.000Z,98376
2019-03-13T10:14:00.000Z,98382
2019-03-13T10:19:00.000Z,98392
2019-03-13T10:24:00.000Z,98395
2019-03-13T10:29:00.000Z,98386
2019-03-13T10:34:00.000Z,98395
2019-03-13T10:39:00.000Z,98397
2019-03-13T10:44:00.000Z,98400
2019-03-13T10:49:00.000Z,98390
2019-03-13T10:54:00.000Z,98399
2019-03-13T11:00:00.000Z,98393
2019-03-13T11:05:00.000Z,98400
2019-03-13T11:10:00.000Z,98397
2019-03-13T11:15:00.000Z,98396
2019-03-13T11:20:00.000Z,98392
2019-03-13T11:25:00.000Z,98387
2019-03-13T11:30:00.000Z,98394
2019-03-13T11:35:00.000Z,98387
2019-03-13T11:40:00.000Z,98379
2019-03-13T11:45:00.000Z,98364
2019-03-13T11:50:00.000Z,98355
2019-03-13T11:55:00.000Z,98350
2019-03-13T12:00:00.000Z,98329
2019-03-13T12:05:00.000Z,98329
2019-03-13T12:10:00.000Z,98327
2019-03-13T12:15:00.000Z,98324
2019-03-13T12:20:00.000Z,98320
2019-03-13T12:25:00.000Z,98315
2019-03-13T12:30:00.000Z,98313
2019-03-13T12:35:00.000Z,98330
2019-03-13T12:40:00.000Z,98316
2019-03-13T12:45:00.000Z,98299
2019-03-13T12:50:00.000Z,98312
2019-03-13T12:55:00.000Z,98306
2019-03-13T13:00:00.000Z,98301
2019-03-13T13:05:00.000Z,98299
2019-03-13T13:10:00.000Z,98308
2019-03-13T13:15:00.000Z,98302
2019-03-13T13:20:00.000Z,98288
2019-03-13T13:25:00.000Z,98301
2019-03-13T13:30:00.000Z,98291
2019-03-13T13:35:00.000Z,98296
2019-03-13T13:40:00.000Z,98299
2019-03-13T13:45:00.000Z,98296
2019-03-13T13:50:00.000Z,98281
2019-03-13T13:55:00.000Z,98271
2019-03-13T14:00:00.000Z,98269
2019-03-13T14:05:00.000Z,98273
2019-03-13T14:10:00.000Z,98281
2019-03-13T14:15:00.000Z,98282
2019-03-13T14:20:00.000Z,98267
2019-03-13T14:25:00.000Z,98267
2019-03-13T14:30:00.000Z,98275
2019-03-13T14:35:00.000Z,98265
2019-03-13T14:40:00.000Z,98268
2019-03-13T14:45:00.000Z,98269
2019-03-13T14:50:00.000Z,98275
2019-03-13T14:55:00.000Z,98267
2019-03-13T15:00:00.000Z,98274
2019-03-13T15:05:00.000Z,98279
2019-03-13T15:10:00.000Z,98288
2019-03-13T15:15:00.000Z,98282
2019-03-13T15:20:00.000Z,98286
2019-03-13T15:25:00.000Z,98267
2019-03-13T15:30:00.000Z,98262
2019-03-13T15:35:00.000Z,98271
2019-03-13T15:40:00.000Z,98268
2019-03-13T15:45:00.000Z,98267
2019-03-13T15:50:00.000Z,98274
2019-03-13T15:55:00.000Z,98282
2019-03-13T16:00:00.000Z,98272
2019-03-13T16:05:00.000Z,98273
2019-03-13T16:10:00.000Z,98284
2019-03-13T16:15:00.000Z,98284
2019-03-13T16:20:00.000Z,98292
2019-03-13T16:25:00.000Z,98296
2019-03-13T16:30:00.000Z,98311
2019-03-13T16:35:00.000Z,98315
2019-03-13T16:40:00.000Z,98307
2019-03-13T16:45:00.000Z,98299
2019-03-13T16:50:00.000Z,98294
2019-03-13T16:55:00.000Z,98289
2019-03-13T17:00:00.000Z,98290
2019-03-13T17:06:00.000Z,98295
2019-03-13T17:11:00.000Z,98304
2019-03-13T17:16:00.000Z,98302
2019-03-13T17:21:00.000Z,98297
2019-03-13T17:26:00.000Z,98301
2019-03-13T17:31:00.000Z,98289
2019-03-13T17:36:00.000Z,98292
2019-03-13T17:41:00.000Z,98302
2019-03-13T17:46:00.000Z,98293
2019-03-13T17:51:00.000Z,98319
2019-03-13T17:56:00.000Z,98317
2019-03-13T18:01:00.000Z,98309
2019-03-13T18:06:00.000Z,98311
2019-03-13T18:11:00.000Z,98310
2019-03-13T18:16:00.000Z,98298
2019-03-13T18:21:00.000Z,98314
2019-03-13T18:26:00.000Z,98310
2019-03-13T18:31:00.000Z,98314
2019-03-13T18:36:00.000Z,98324
2019-03-13T18:41:00.000Z,98325
2019-03-13T18:46:00.000Z,98325
2019-03-13T18:51:00.000Z,98322
2019-03-13T18:56:00.000Z,98333
2019-03-13T19:01:00.000Z,98330
2019-03-13T19:06:00.000Z,98333
2019-03-13T19:11:00.000Z,98325
2019-03-13T19:16:00.000Z,98328
2019-03-13T19:21:00.000Z,98336
2019-03-13T19:26:00.000Z,98341
2019-03-13T19:31:00.000Z,98348
2019-03-13T19:36:00.000Z,98335
2019-03-13T19:41:00.000Z,98333
2019-03-13T19:46:00.000Z,98321
2019-03-13T19:51:00.000Z,98314
2019-03-13T19:56:00.000Z,98318
2019-03-13T20:01:00.000Z,98314
2019-03-13T20:06:00.000Z,98318
2019-03-13T20:11:00.000Z,98311
2019-03-13T20:16:00.000Z,98311
2019-03-13T20:21:00.000Z,98322
2019-03-13T20:26:00.000Z,98306
2019-03-13T20:31:00.000Z,98308
2019-03-13T20:36:00.000Z,98304
2019-03-13T20:41:00.000Z,98302
2019-03-13T20:46:00.000Z,98306
2019-03-13T20:51:00.000Z,98307
2019-03-13T20:56:00.000Z,98292
2019-03-13T21:01:00.000Z,98299
2019-03-13T21:07:00.000Z,98290
2019-03-13T21:12:00.000Z,98290
2019-03-13T21:17:00.000Z,98281
2019-03-13T21:22:00.000Z,98282
2019-03-13T21:27:00.000Z,98278
2019-03-13T21:32:00.000Z,98268
2019-03-13T21:37:00.000Z,98273
2019-03-13T21:42:00.000Z,98259
2019-03-13T21:47:00.000Z,98265
2019-03-13T21:52:00.000Z,98259
2019-03-13T21:57:00.000Z,98270
2019-03-13T22:02:00.000Z,98260
2019-03-13T22:07:00.000Z,98253
2019-03-13T22:12:00.000Z,98245
2019-03-13T22:17:00.000Z,98261
2019-03-13T22:22:00.000Z,98242
2019-03-13T22:27:00.000Z,98248
2019-03-13T22:32:00.000Z,98234
2019-03-13T22:37:00.000Z,98218
2019-03-13T22:42:00.000Z,98207
2019-03-13T22:47:00.000Z,98209
2019-03-13T22:52:00.000Z,98216
2019-03-13T22:57:00.000Z,98219
2019-03-13T23:02:00.000Z,98223
2019-03-13T23:07:00.000Z,98227
2019-03-13T23:12:00.000Z,98208
2019-03-13T23:17:00.000Z,98196
2019-03-13T23:22:00.000Z,98199
2019-03-13T23:27:00.000Z,98192
2019-03-13T23:32:00.000Z,98169
2019-03-13T23:37:00.000Z,98179
2019-03-13T23:42:00.000Z,98181
2019-03-13T23:47:00.000Z,98178
2019-03-13T23:52:00.000Z,98183
2019-03-13T23:57:00.000Z,98174
